createdAt,value
2018-11-20T00:02:35.660Z,1.31
2018-11-20T00:08:30.607Z,0.78
2018-11-20T00:14:25.616Z,0.38
2018-11-20T00:20:20.681Z,0.83
2018-11-20T00:26:15.658Z,0.39
2018-11-20T00:32:10.629Z,0.17
2018-11-20T00:38:05.629Z,1.8
2018-11-20T00:44:00.612Z,0.43
2018-11-20T00:49:55.637Z,0.23
2018-11-20T00:55:50.654Z,0.67
2018-11-20T01:01:45.628Z,1.26
2018-11-20T01:07:40.648Z,1.09
2018-11-20T01:13:35.638Z,0.4
2018-11-20T01:19:30.645Z,0.58
2018-11-20T01:25:25.663Z,0.85
2018-11-20T01:31:20.654Z,0.7
2018-11-20T01:37:15.659Z,0.67
2018-11-20T01:43:10.666Z,0.99
2018-11-20T01:49:05.664Z,1.34
2018-11-20T01:55:00.691Z,0.61
2018-11-20T02:00:55.720Z,0.71
2018-11-20T02:06:50.655Z,0.93
2018-11-20T02:12:45.691Z,1.38
2018-11-20T02:18:40.692Z,0.73
2018-11-20T02:24:35.747Z,1.42
2018-11-20T02:30:30.730Z,0.47
2018-11-20T02:36:25.691Z,0.79
2018-11-20T02:42:20.703Z,0.77
2018-11-20T02:48:15.688Z,0.93
2018-11-20T02:54:10.707Z,1.26
2018-11-20T03:00:05.696Z,0.88
2018-11-20T03:06:00.697Z,0.71
2018-11-20T03:11:55.700Z,0.53
2018-11-20T03:17:50.770Z,1.01
2018-11-20T03:23:45.758Z,0.5
2018-11-20T03:29:40.699Z,0.5
2018-11-20T03:35:35.707Z,0.47
2018-11-20T03:41:30.722Z,0.48
2018-11-20T03:47:25.725Z,0.44
2018-11-20T03:53:20.734Z,0.41
2018-11-20T03:59:15.732Z,0.63
2018-11-20T04:05:10.742Z,0.79
2018-11-20T04:11:05.721Z,0.57
2018-11-20T04:17:00.725Z,0.17
2018-11-20T04:22:55.764Z,0.31
2018-11-20T04:28:50.761Z,0.17
2018-11-20T04:34:45.769Z,0.27
2018-11-20T04:40:40.758Z,0.21
2018-11-20T04:46:35.758Z,0.18
2018-11-20T04:52:30.794Z,0.14
2018-11-20T04:58:25.766Z,0.17
2018-11-20T05:04:20.753Z,0.26
2018-11-20T05:10:15.815Z,0.2
2018-11-20T05:16:10.768Z,0.18
2018-11-20T05:22:05.779Z,0.29
2018-11-20T05:28:00.847Z,0.22
2018-11-20T05:33:55.790Z,0.49
2018-11-20T05:39:50.838Z,0.19
2018-11-20T05:45:45.779Z,0.45
2018-11-20T05:51:40.772Z,0.26
2018-11-20T05:57:35.811Z,0.32
2018-11-20T06:03:30.835Z,0.24
2018-11-20T06:09:25.896Z,0.49
2018-11-20T06:15:20.789Z,0.56
2018-11-20T06:21:15.792Z,0.36
2018-11-20T06:27:10.815Z,0.42
2018-11-20T06:33:05.827Z,0.27
2018-11-20T06:39:00.852Z,0.26
2018-11-20T06:44:55.819Z,0.33
2018-11-20T06:50:50.871Z,0.34
2018-11-20T06:56:45.829Z,0.39
2018-11-20T07:02:40.833Z,0.23
2018-11-20T07:08:35.919Z,0.32
2018-11-20T07:14:30.882Z,0.4
2018-11-20T07:20:25.843Z,0.72
2018-11-20T07:26:20.828Z,0.38
2018-11-20T07:32:15.862Z,0.41
2018-11-20T07:38:10.847Z,0.73
2018-11-20T07:44:05.898Z,0.54
2018-11-20T07:50:00.844Z,0.58
2018-11-20T07:55:55.881Z,0.41
2018-11-20T08:01:50.869Z,0.33
2018-11-20T08:07:45.869Z,0.48
2018-11-20T08:13:40.857Z,0.58
2018-11-20T08:19:35.865Z,0.42
2018-11-20T08:25:31.018Z,0.44
2018-11-20T08:31:25.872Z,0.43
2018-11-20T08:37:20.858Z,0.34
2018-11-20T08:43:15.868Z,0.45
2018-11-20T08:49:10.900Z,0.59
2018-11-20T08:55:05.875Z,0.62
2018-11-20T09:01:00.880Z,0.52
2018-11-20T09:06:55.906Z,0.44
2018-11-20T09:12:50.878Z,0.56
2018-11-20T09:18:45.895Z,0.55
2018-11-20T09:24:40.949Z,0.71
2018-11-20T09:30:35.901Z,0.62
2018-11-20T09:36:30.910Z,0.43
2018-11-20T09:42:25.957Z,0.39
2018-11-20T09:48:20.890Z,2.67
2018-11-20T09:54:15.908Z,0.41
2018-11-20T10:00:10.923Z,0.71
2018-11-20T10:06:05.974Z,0.53
2018-11-20T10:12:00.941Z,0.56
2018-11-20T10:17:55.934Z,0.61
2018-11-20T10:23:50.966Z,1.8
2018-11-20T10:29:45.947Z,0.98
2018-11-20T10:35:41.024Z,0.95
2018-11-20T10:41:35.944Z,0.73
2018-11-20T10:47:30.928Z,0.79
2018-11-20T10:53:25.937Z,0.56
2018-11-20T10:59:21.027Z,0.48
2018-11-20T11:05:15.961Z,1.38
2018-11-20T11:11:10.964Z,0.91
2018-11-20T11:17:05.971Z,0.88
2018-11-20T11:23:00.959Z,0.71
2018-11-20T11:28:55.939Z,0.73
2018-11-20T11:34:50.966Z,0.73
2018-11-20T11:40:45.952Z,0.98
2018-11-20T11:46:40.956Z,0.96
2018-11-20T11:52:35.998Z,1.38
2018-11-20T11:58:30.979Z,1.19
2018-11-20T12:04:25.996Z,0.93
2018-11-20T12:10:20.998Z,1.37
2018-11-20T14:02:46.038Z,5.26
2018-11-20T16:48:26.128Z,7.54
2018-11-20T17:12:06.115Z,8.07
2018-11-20T19:57:46.220Z,13.35
